Time;durP1;ratioP1;P1;durP2;ratioP2;P2;SDS_P1;SDS_P2;PMS_P1;PMS_P2;Temp;Humidity;BMP_temperature;BMP_pressure;BME280_temperature;BME280_humidity;BME280_pressure;Samples;Min_cycle;Max_cycle;Signal;HPM_P1;HPM_P2
2023/01/30 00:00:38;;;;;;;25.70;12.45;;;;;;;0.04;64.18;99831.56;5262639;28;20108;-72
2023/01/30 00:03:28;;;;;;;27.10;12.25;;;;;;;0.18;64.20;99825.81;5249494;28;20132;-71
2023/01/30 00:06:19;;;;;;;27.83;12.38;;;;;;;0.16;64.34;99811.97;5250523;28;20454;-71
2023/01/30 00:09:13;;;;;;;26.55;13.00;;;;;;;0.39;63.61;99809.34;5269114;28;20047;-72
2023/01/30 00:12:03;;;;;;;;;;;;;;;0.25;63.63;99816.84;5270669;28;20486;-73
2023/01/30 00:14:53;;;;;;;28.95;12.13;;;;;;;0.10;63.82;99812.22;5265132;28;19981;-73
2023/01/30 00:17:44;;;;;;;27.90;12.27;;;;;;;-0.06;63.70;99804.97;5234945;28;20047;-74
2023/01/30 00:20:34;;;;;;;27.40;12.40;;;;;;;-0.14;64.02;99817.44;5264668;28;20150;-73
2023/01/30 00:23:25;;;;;;;34.38;14.68;;;;;;;-0.22;64.50;99827.31;5267394;28;20040;-73
2023/01/30 00:26:15;;;;;;;26.58;13.43;;;;;;;-0.27;64.20;99803.16;5277178;28;20656;-73
2023/01/30 00:29:06;;;;;;;30.23;13.35;;;;;;;-0.35;65.14;99794.78;5236586;28;20056;-74
2023/01/30 00:31:56;;;;;;;30.75;14.38;;;;;;;-0.43;64.75;99791.59;5229830;28;20418;-74
2023/01/30 00:34:46;;;;;;;35.67;15.27;;;;;;;-0.42;64.72;99795.91;5247564;28;20054;-73
2023/01/30 00:37:36;;;;;;;31.42;13.57;;;;;;;-0.49;65.09;99793.53;5270031;28;20054;-73
2023/01/30 00:40:28;;;;;;;30.10;14.10;;;;;;;-0.51;64.32;99797.91;5249356;28;20082;-74
2023/01/30 00:49:41;;;;;;;33.47;15.02;;;;;;;-0.55;64.69;99838.00;5266930;28;20052;-73
2023/01/30 00:52:31;;;;;;;33.38;15.48;;;;;;;-0.56;64.71;99854.56;5248895;28;20063;-73
2023/01/30 00:55:21;;;;;;;38.03;16.42;;;;;;;-0.78;66.81;99869.19;5265430;28;20623;-72
2023/01/30 00:58:12;;;;;;;37.30;15.27;;;;;;;-0.65;66.41;99886.13;5254997;28;20415;-74
2023/01/30 01:01:02;;;;;;;39.75;18.73;;;;;;;-0.69;66.12;99888.91;5256127;28;20055;-73
2023/01/30 01:03:53;;;;;;;39.00;16.75;;;;;;;-0.74;67.71;99874.25;5253880;28;20517;-73
2023/01/30 01:06:42;;;;;;;41.00;18.75;;;;;;;-0.64;67.31;99873.94;5269399;28;20135;-73
2023/01/30 01:09:33;;;;;;;38.53;16.65;;;;;;;-0.47;65.74;99880.28;5267855;28;20129;-72
2023/01/30 01:12:23;;;;;;;40.30;17.08;;;;;;;-0.56;66.51;99872.78;5264610;28;20047;-74
2023/01/30 01:15:13;;;;;;;47.00;18.02;;;;;;;-0.43;66.66;99885.38;5273070;28;20047;-73
2023/01/30 01:18:03;;;;;;;38.97;16.15;;;;;;;-0.40;66.53;99874.84;5270149;28;20058;-73
2023/01/30 01:20:53;;;;;;;39.42;16.70;;;;;;;-0.27;65.79;99863.09;5268095;28;20078;-73
2023/01/30 01:23:49;;;;;;;35.50;16.88;;;;;;;-0.21;66.20;99894.16;5253278;28;20133;-74
2023/01/30 01:26:41;;;;;;;34.42;15.90;;;;;;;-0.19;65.70;99888.91;5278452;28;20047;-73
2023/01/30 01:29:33;;;;;;;32.22;15.32;;;;;;;-0.08;65.97;99871.13;5279753;28;20047;-73
2023/01/30 01:32:25;;;;;;;32.13;15.05;;;;;;;-0.04;65.61;99870.94;5289196;28;20411;-73
2023/01/30 01:35:15;;;;;;;30.58;15.00;;;;;;;-0.02;65.67;99876.97;5289908;28;20741;-73
2023/01/30 01:38:06;;;;;;;32.17;14.57;;;;;;;-0.07;64.96;99867.59;5268972;28;20090;-73
2023/01/30 01:41:02;;;;;;;33.50;14.30;;;;;;;-0.02;65.29;99876.09;5274987;28;20143;-73
2023/01/30 01:44:19;;;;;;;33.78;14.52;;;;;;;0.01;64.81;99869.94;5256458;28;20048;-73
2023/01/30 01:47:09;;;;;;;26.75;13.20;;;;;;;0.00;65.60;99869.09;5252993;28;20505;-73
2023/01/30 01:50:01;;;;;;;33.28;13.70;;;;;;;0.05;65.57;99848.06;5251578;28;20418;-74
2023/01/30 01:52:56;;;;;;;30.42;13.90;;;;;;;-0.10;65.88;99831.19;5252277;28;20051;-73
2023/01/30 01:55:51;;;;;;;33.38;14.90;;;;;;;0.05;65.53;99872.38;5271976;28;20055;-74
2023/01/30 01:58:49;;;;;;;34.45;14.65;;;;;;;0.14;65.58;99873.81;5257165;28;20082;-74
2023/01/30 02:01:40;;;;;;;36.92;14.85;;;;;;;0.22;65.81;99863.91;5252190;28;20079;-73
2023/01/30 02:07:49;;;;;;;34.40;15.68;;;;;;;0.18;65.58;99842.31;5285364;28;20067;-73
2023/01/30 02:10:42;;;;;;;36.30;15.35;;;;;;;0.42;66.38;99834.47;5261451;28;20607;-73
2023/01/30 02:13:32;;;;;;;36.60;16.42;;;;;;;0.32;65.51;99817.47;5231154;28;20052;-74
2023/01/30 02:16:22;;;;;;;36.10;15.77;;;;;;;0.77;65.37;99812.19;5231363;28;20059;-73
2023/01/30 02:19:29;;;;;;;39.88;16.92;;;;;;;0.80;63.02;99808.63;5243415;28;20078;-75
2023/01/30 02:22:49;;;;;;;38.20;16.88;;;;;;;0.73;63.82;99800.19;5251826;28;20102;-73
2023/01/30 02:26:00;;;;;;;38.67;16.25;;;;;;;0.55;64.54;99788.72;5260219;28;20063;-74
2023/01/30 02:29:09;;;;;;;36.45;16.63;;;;;;;0.53;64.01;99808.81;5250671;28;20075;-73
2023/01/30 02:32:41;;;;;;;43.60;17.92;;;;;;;0.31;64.71;99806.19;5273969;28;20092;-73
2023/01/30 02:35:48;;;;;;;36.55;15.63;;;;;;;0.22;65.61;99767.41;5272486;28;20074;-73
2023/01/30 02:39:10;;;;;;;42.10;16.75;;;;;;;0.12;66.00;99777.34;5247567;28;20082;-74
2023/01/30 02:42:18;;;;;;;42.30;19.17;;;;;;;0.57;64.93;99778.22;5216657;28;20656;-74
2023/01/30 02:45:33;;;;;;;46.05;17.67;;;;;;;0.08;65.41;99767.13;5230542;28;20056;-73
2023/01/30 02:48:49;;;;;;;47.20;18.13;;;;;;;0.06;66.96;99768.91;5236425;28;20419;-73
2023/01/30 02:51:42;;;;;;;45.03;18.55;;;;;;;0.12;66.26;99753.88;5250866;28;20121;-73
2023/01/30 02:54:33;;;;;;;40.40;17.77;;;;;;;0.32;66.41;99766.16;5277650;28;20052;-73
2023/01/30 02:57:26;;;;;;;43.67;19.00;;;;;;;0.45;66.14;99772.56;5253775;28;20051;-73
2023/01/30 03:00:28;;;;;;;41.00;17.80;;;;;;;0.34;66.30;99759.13;5250308;28;20595;-73
2023/01/30 03:03:38;;;;;;;42.80;17.65;;;;;;;0.76;65.44;99750.44;5287726;28;20192;-73
2023/01/30 03:06:45;;;;;;;42.35;18.38;;;;;;;0.74;65.19;99701.84;5272325;28;20051;-73
2023/01/30 03:09:53;;;;;;;41.55;18.13;;;;;;;-0.01;66.27;99671.84;5271938;28;20056;-73
2023/01/30 03:13:10;;;;;;;40.33;17.00;;;;;;;0.28;65.60;99695.91;5275177;28;20173;-73
2023/01/30 03:16:07;;;;;;;43.25;16.65;;;;;;;0.34;66.25;99680.03;5245175;28;20050;-72
2023/01/30 03:19:05;;;;;;;37.45;16.35;;;;;;;0.29;65.89;99667.13;5238346;28;20048;-73
2023/01/30 03:21:54;;;;;;;37.60;16.52;;;;;;;0.46;65.08;99649.06;5249093;28;20058;-73
2023/01/30 03:24:50;;;;;;;36.80;16.00;;;;;;;0.34;65.05;99625.25;5243239;28;20063;-73
2023/01/30 03:27:41;;;;;;;33.97;15.00;;;;;;;0.92;64.00;99644.44;5267756;28;20047;-74
2023/01/30 03:30:31;;;;;;;38.05;16.23;;;;;;;1.01;63.08;99644.97;5240806;28;20056;-73
2023/01/30 03:33:29;;;;;;;34.08;15.18;;;;;;;0.99;63.08;99652.88;5229431;28;20095;-74
2023/01/30 03:36:20;;;;;;;31.17;14.68;;;;;;;0.90;63.07;99664.56;5244973;28;20560;-73
2023/01/30 03:39:10;;;;;;;33.35;15.25;;;;;;;0.53;64.15;99680.09;5229758;28;20090;-72
2023/01/30 03:42:01;;;;;;;33.25;14.00;;;;;;;1.05;62.93;99672.66;5253641;28;20114;-73
2023/01/30 03:44:52;;;;;;;33.78;13.95;;;;;;;0.98;62.70;99651.16;5258921;28;20130;-73
2023/01/30 03:47:42;;;;;;;35.38;14.88;;;;;;;0.70;63.39;99634.13;5265348;28;20050;-73
2023/01/30 03:50:32;;;;;;;36.72;15.05;;;;;;;1.13;63.06;99683.63;5249843;28;20047;-73
2023/01/30 03:53:23;;;;;;;30.95;14.50;;;;;;;1.14;63.53;99669.63;5265796;28;20127;-73
2023/01/30 03:56:13;;;;;;;32.25;14.43;;;;;;;1.49;61.52;99661.97;5247034;28;20724;-73
2023/01/30 03:59:04;;;;;;;32.22;14.52;;;;;;;1.53;62.11;99663.53;5255390;28;20067;-73
2023/01/30 04:02:00;;;;;;;30.35;13.85;;;;;;;1.24;63.05;99652.63;5249849;28;20059;-73
2023/01/30 04:04:52;;;;;;;31.13;14.30;;;;;;;1.31;62.52;99668.88;5236171;28;20592;-73
2023/01/30 04:07:42;;;;;;;36.00;13.82;;;;;;;1.32;62.09;99665.34;5249700;28;20044;-73
2023/01/30 04:10:32;;;;;;;29.52;13.10;;;;;;;1.50;62.05;99669.75;5248999;28;20425;-74
2023/01/30 04:13:23;;;;;;;29.05;12.95;;;;;;;1.60;61.58;99665.78;5265283;28;20504;-73
2023/01/30 04:16:20;;;;;;;26.20;12.82;;;;;;;1.47;61.63;99653.34;5282034;22;20196;-70
2023/01/30 04:19:30;;;;;;;26.95;12.35;;;;;;;1.58;62.05;99672.84;5186541;28;20052;-71
2023/01/30 04:22:20;;;;;;;28.77;12.70;;;;;;;1.48;61.96;99668.13;5241367;28;20059;-70
2023/01/30 04:25:11;;;;;;;26.00;12.38;;;;;;;1.52;62.08;99688.78;5206938;28;20071;-70
2023/01/30 04:28:01;;;;;;;30.02;13.70;;;;;;;1.29;62.75;99678.53;5206959;28;20052;-70
2023/01/30 04:30:57;;;;;;;43.65;19.38;;;;;;;1.44;61.16;99662.19;5218433;28;20060;-70
2023/01/30 04:34:19;;;;;;;37.17;14.80;;;;;;;1.51;61.57;99660.13;5198525;28;20052;-71
2023/01/30 04:37:10;;;;;;;33.10;13.60;;;;;;;1.53;62.69;99666.16;5208140;28;20131;-70
2023/01/30 04:40:01;;;;;;;26.05;12.07;;;;;;;1.46;62.22;99651.63;5202623;28;20052;-69
2023/01/30 04:42:51;;;;;;;27.95;11.88;;;;;;;1.51;62.13;99670.59;5209464;28;20248;-70
2023/01/30 04:46:14;;;;;;;25.17;12.85;;;;;;;1.56;61.87;99673.84;5177533;28;20422;-70
2023/01/30 04:49:04;;;;;;;28.50;13.52;;;;;;;1.57;62.50;99667.69;5220908;28;20053;-70
2023/01/30 04:51:55;;;;;;;29.55;12.93;;;;;;;1.31;62.80;99663.66;5207056;28;20047;-70
2023/01/30 04:54:44;;;;;;;27.15;12.27;;;;;;;1.64;61.69;99629.91;5207765;28;20045;-70
2023/01/30 04:57:35;;;;;;;23.65;11.50;;;;;;;1.85;60.76;99652.44;5211050;28;20052;-70
2023/01/30 05:00:26;;;;;;;24.85;11.23;;;;;;;1.56;60.44;99660.78;5220383;28;20122;-70
2023/01/30 05:03:20;;;;;;;22.45;11.07;;;;;;;1.70;60.87;99650.53;5208262;28;20045;-70
2023/01/30 05:06:10;;;;;;;24.75;11.73;;;;;;;1.90;60.04;99651.34;5240106;28;20049;-70
2023/01/30 05:09:00;;;;;;;31.70;12.20;;;;;;;1.61;60.51;99650.94;5243214;28;20055;-70
2023/01/30 05:11:50;;;;;;;26.75;11.00;;;;;;;1.66;60.69;99651.59;5237280;28;20509;-70
2023/01/30 05:14:40;;;;;;;24.05;10.85;;;;;;;1.89;60.60;99653.13;5236357;28;20052;-70
2023/01/30 05:17:30;;;;;;;23.17;11.48;;;;;;;1.96;60.05;99631.00;5227885;28;20048;-70
2023/01/30 05:20:21;;;;;;;21.83;11.43;;;;;;;2.02;59.87;99620.22;5225711;28;20140;-70
2023/01/30 05:23:11;;;;;;;22.45;11.23;;;;;;;2.14;59.46;99634.47;5222741;28;20529;-70
2023/01/30 05:26:01;;;;;;;20.02;10.30;;;;;;;2.07;60.01;99633.06;5221051;28;20060;-70
2023/01/30 05:28:54;;;;;;;23.63;10.73;;;;;;;2.09;59.63;99615.56;5217605;28;20045;-71
2023/01/30 05:31:44;;;;;;;22.30;11.07;;;;;;;2.03;60.23;99642.84;5222107;28;20053;-71
2023/01/30 05:34:34;;;;;;;22.58;10.07;;;;;;;2.17;59.63;99625.63;5222996;28;20045;-71
2023/01/30 05:37:25;;;;;;;22.77;10.57;;;;;;;2.27;59.92;99624.25;5222140;28;20447;-74
2023/01/30 05:40:15;;;;;;;21.50;10.48;;;;;;;2.09;60.53;99632.09;5211692;28;20565;-72
2023/01/30 05:43:06;;;;;;;24.58;10.57;;;;;;;2.28;59.23;99618.94;5208292;28;20075;-74
2023/01/30 05:45:58;;;;;;;23.00;10.60;;;;;;;2.11;60.01;99617.13;5185364;28;20052;-76
2023/01/30 05:48:48;;;;;;;25.60;10.63;;;;;;;2.18;59.91;99607.22;5206436;28;20573;-75
2023/01/30 05:51:38;;;;;;;23.42;9.88;;;;;;;2.31;59.87;99610.91;5205970;28;20064;-73
2023/01/30 05:54:28;;;;;;;25.38;10.68;;;;;;;2.15;59.90;99589.06;5194276;28;20048;-76
2023/01/30 05:57:18;;;;;;;23.95;10.48;;;;;;;2.15;60.90;99588.22;5226215;28;20049;-76
2023/01/30 06:00:09;;;;;;;24.05;10.73;;;;;;;2.07;60.12;99578.16;5226837;28;20049;-76
2023/01/30 06:03:04;;;;;;;19.02;9.00;;;;;;;1.91;61.58;99585.03;5227945;28;20116;-73
2023/01/30 06:05:54;;;;;;;17.27;9.40;;;;;;;1.99;60.57;99588.16;5226522;28;20048;-71
2023/01/30 06:08:45;;;;;;;20.05;9.50;;;;;;;2.17;60.30;99586.38;5223575;28;20158;-72
2023/01/30 06:11:35;;;;;;;21.30;8.98;;;;;;;2.18;60.44;99583.69;5219707;28;20057;-71
2023/01/30 06:14:26;;;;;;;17.05;9.32;;;;;;;2.25;59.70;99568.53;5190955;28;20132;-72
2023/01/30 06:17:16;;;;;;;19.65;9.77;;;;;;;2.34;59.92;99589.84;5211365;28;20045;-74
2023/01/30 06:20:08;;;;;;;19.45;9.82;;;;;;;2.18;60.01;99586.28;5208659;28;20084;-73
2023/01/30 06:22:58;;;;;;;21.27;10.50;;;;;;;1.98;59.93;99576.81;5224766;28;20194;-73
2023/01/30 06:25:50;;;;;;;20.15;9.15;;;;;;;2.04;60.39;99588.75;5225101;28;20494;-73
2023/01/30 06:28:44;;;;;;;17.27;8.57;;;;;;;2.13;59.80;99582.22;5208174;28;20135;-72
2023/01/30 06:31:34;;;;;;;17.45;8.80;;;;;;;2.28;59.59;99574.44;5219053;28;20090;-73
2023/01/30 06:34:24;;;;;;;19.83;9.45;;;;;;;2.63;58.27;99573.59;5204957;28;20060;-72
2023/01/30 06:37:15;;;;;;;18.05;9.45;;;;;;;2.33;58.98;99575.06;5203395;28;20114;-72
2023/01/30 06:40:05;;;;;;;20.77;9.32;;;;;;;2.37;59.87;99570.53;5206965;28;20060;-72
2023/01/30 06:42:56;;;;;;;19.67;9.15;;;;;;;2.53;59.58;99583.69;5196554;28;20138;-73
2023/01/30 06:45:46;;;;;;;21.83;8.98;;;;;;;2.52;58.50;99561.06;5219409;28;20511;-74
2023/01/30 06:48:36;;;;;;;19.92;9.07;;;;;;;2.92;57.71;99585.16;5183122;28;20574;-74
2023/01/30 06:51:26;;;;;;;20.27;9.02;;;;;;;2.76;57.72;99582.50;5224154;28;20053;-72
2023/01/30 06:54:16;;;;;;;19.30;9.15;;;;;;;2.48;59.20;99583.91;5195839;28;20052;-73
2023/01/30 06:57:06;;;;;;;19.88;9.55;;;;;;;2.29;59.42;99570.06;5178358;28;20057;-73
2023/01/30 06:59:57;;;;;;;17.05;8.55;;;;;;;2.42;59.05;99581.63;5204909;28;20057;-73
2023/01/30 07:02:47;;;;;;;17.08;8.77;;;;;;;2.45;60.20;99581.47;5207240;28;20230;-71
2023/01/30 07:05:39;;;;;;;19.20;8.80;;;;;;;2.68;59.03;99572.44;5189894;28;20175;-72
2023/01/30 07:08:29;;;;;;;23.38;9.60;;;;;;;2.74;58.91;99569.47;5209720;28;20067;-74
2023/01/30 07:11:19;;;;;;;21.40;9.40;;;;;;;2.81;59.28;99604.03;5211137;28;20838;-74
2023/01/30 07:14:09;;;;;;;17.75;9.15;;;;;;;2.86;58.80;99602.03;5220651;28;20061;-75
2023/01/30 07:16:59;;;;;;;20.00;9.38;;;;;;;2.66;58.97;99618.78;5216659;28;20045;-76
2023/01/30 07:19:50;;;;;;;20.77;9.88;;;;;;;2.69;59.32;99616.00;5215251;28;20052;-74
2023/01/30 07:22:40;;;;;;;19.92;9.73;;;;;;;2.72;59.40;99620.25;5220388;28;20556;-70
2023/01/30 07:25:30;;;;;;;20.98;8.75;;;;;;;2.91;58.80;99620.97;5223591;28;20048;-73
2023/01/30 07:28:20;;;;;;;19.20;9.50;;;;;;;2.90;59.14;99611.41;5211649;28;20530;-73
2023/01/30 07:31:10;;;;;;;21.33;9.75;;;;;;;2.86;58.64;99591.56;5220543;28;20056;-73
2023/01/30 07:34:01;;;;;;;22.77;10.02;;;;;;;2.79;58.87;99632.94;5229384;28;20099;-71
2023/01/30 07:36:51;;;;;;;20.80;9.02;;;;;;;2.97;59.15;99625.03;5226287;28;20068;-72
2023/01/30 07:39:40;;;;;;;19.40;8.52;;;;;;;3.02;59.24;99631.75;5220814;28;20049;-73
2023/01/30 07:42:31;;;;;;;17.77;8.38;;;;;;;2.92;59.11;99632.31;5201234;28;20064;-72
2023/01/30 07:45:21;;;;;;;20.40;9.75;;;;;;;2.98;59.48;99642.44;5207114;28;20053;-75
2023/01/30 07:48:16;;;;;;;22.48;9.48;;;;;;;3.00;59.58;99632.75;5215022;28;20632;-71
2023/01/30 07:51:06;;;;;;;16.83;8.88;;;;;;;3.00;59.44;99630.97;5220574;28;20111;-71
2023/01/30 07:53:57;;;;;;;20.08;9.25;;;;;;;3.03;59.30;99620.31;5205928;28;20048;-70
2023/01/30 07:56:47;;;;;;;16.55;8.65;;;;;;;2.97;60.20;99625.88;5214082;28;20495;-71
2023/01/30 07:59:37;;;;;;;20.70;9.13;;;;;;;3.07;60.06;99610.53;5216023;28;20888;-71
2023/01/30 08:02:27;;;;;;;17.38;8.32;;;;;;;3.27;59.62;99615.53;5217063;28;20186;-70
2023/01/30 08:05:17;;;;;;;17.88;8.27;;;;;;;3.15;60.47;99618.84;5215325;28;20408;-71
2023/01/30 08:08:07;;;;;;;22.77;9.05;;;;;;;3.00;60.40;99617.84;5214074;28;20190;-71
2023/01/30 08:10:57;;;;;;;23.50;8.50;;;;;;;3.08;61.21;99621.84;5210030;28;20521;-71
2023/01/30 08:13:48;;;;;;;18.30;8.02;;;;;;;3.32;60.26;99617.09;5213504;28;20080;-72
2023/01/30 08:16:38;;;;;;;17.83;8.02;;;;;;;3.29;60.75;99587.47;5213141;28;20131;-73
2023/01/30 08:19:28;;;;;;;18.63;8.27;;;;;;;2.74;61.24;99574.69;5215360;28;20049;-71
2023/01/30 08:22:18;;;;;;;17.35;8.50;;;;;;;2.73;62.38;99549.44;5210754;28;20049;-71
2023/01/30 08:25:08;;;;;;;18.20;8.20;;;;;;;3.24;61.71;99558.03;5204241;28;20505;-71
2023/01/30 08:27:59;;;;;;;16.95;7.82;;;;;;;2.79;62.89;99543.91;5188998;28;20053;-72
2023/01/30 08:30:52;;;;;;;19.38;9.63;;;;;;;2.58;64.05;99537.16;5207666;28;20059;-71
2023/01/30 08:33:42;;;;;;;16.38;8.20;;;;;;;2.96;63.04;99523.81;5215979;28;20122;-71
2023/01/30 08:36:33;;;;;;;20.30;8.18;;;;;;;3.01;63.46;99540.97;5219520;28;20093;-71
2023/01/30 08:39:23;;;;;;;18.92;8.07;;;;;;;3.16;63.15;99543.69;5214204;28;20431;-71
2023/01/30 08:42:13;;;;;;;16.25;7.82;;;;;;;3.27;62.11;99536.91;5212123;28;20095;-72
2023/01/30 08:45:03;;;;;;;17.95;8.18;;;;;;;3.26;62.86;99556.19;5201404;28;20076;-72
2023/01/30 08:48:00;;;;;;;19.52;8.15;;;;;;;3.17;63.15;99535.72;5187987;28;20127;-71
2023/01/30 08:50:54;;;;;;;14.55;7.45;;;;;;;3.15;64.03;99529.75;5205866;28;20428;-73
2023/01/30 08:53:44;;;;;;;;;;;;;;;2.85;64.04;99531.38;5205701;28;20051;-71
2023/01/30 08:56:34;;;;;;;16.10;7.93;;;;;;;3.22;63.73;99525.00;5202253;28;20384;-72
2023/01/30 08:59:25;;;;;;;17.10;8.25;;;;;;;3.61;61.73;99523.69;5191008;28;20164;-72
2023/01/30 09:02:15;;;;;;;15.27;7.80;;;;;;;3.27;62.76;99491.53;5209711;28;20060;-71
2023/01/30 09:05:06;;;;;;;14.82;7.53;;;;;;;3.25;62.87;99488.16;5203107;28;20459;-73
2023/01/30 09:07:56;;;;;;;15.70;7.57;;;;;;;3.15;62.98;99487.81;5210113;28;20044;-72
2023/01/30 09:10:46;;;;;;;14.70;7.07;;;;;;;3.49;62.33;99492.00;5222158;28;20542;-72
2023/01/30 09:13:37;;;;;;;15.50;7.50;;;;;;;3.43;62.49;99502.00;5216404;28;20068;-73
2023/01/30 09:16:27;;;;;;;15.68;7.63;;;;;;;3.73;61.55;99500.25;5185730;28;20187;-72
2023/01/30 09:19:18;;;;;;;14.32;7.03;;;;;;;3.63;62.28;99514.81;5223745;28;20045;-72
2023/01/30 09:22:08;;;;;;;14.90;7.25;;;;;;;3.54;62.13;99499.59;5216765;28;20428;-73
2023/01/30 09:24:58;;;;;;;18.27;6.85;;;;;;;3.42;62.86;99524.75;5205816;28;20142;-72
2023/01/30 09:27:49;;;;;;;19.13;7.93;;;;;;;3.81;61.80;99504.19;5210137;28;20656;-73
2023/01/30 09:30:39;;;;;;;14.85;7.22;;;;;;;3.89;61.77;99507.25;5205638;28;20527;-72
2023/01/30 09:33:29;;;;;;;17.63;7.57;;;;;;;3.98;62.11;99514.59;5217212;28;20056;-73
2023/01/30 09:36:19;;;;;;;14.02;7.13;;;;;;;4.14;62.15;99501.38;5225777;28;20522;-73
2023/01/30 09:39:09;;;;;;;15.50;7.20;;;;;;;4.16;61.51;99497.75;5209559;28;20056;-72
2023/01/30 09:42:03;;;;;;;15.73;6.65;;;;;;;4.09;62.16;99496.41;5225515;28;20095;-73
2023/01/30 09:45:09;;;;;;;12.52;5.85;;;;;;;4.20;62.16;99494.00;5213909;28;20518;-73
2023/01/30 09:48:13;;;;;;;12.77;5.88;;;;;;;3.95;62.19;99483.28;5217582;28;20116;-73
2023/01/30 09:51:36;;;;;;;13.00;5.95;;;;;;;4.59;61.57;99494.31;5194097;28;20500;-73
2023/01/30 09:54:35;;;;;;;10.55;5.68;;;;;;;4.41;61.37;99476.13;5210111;28;20053;-73
2023/01/30 09:57:25;;;;;;;12.07;5.60;;;;;;;4.28;61.55;99450.72;5205140;28;20045;-73
2023/01/30 10:00:35;;;;;;;12.98;5.60;;;;;;;4.63;60.88;99469.53;5205698;28;20140;-73
2023/01/30 10:03:36;;;;;;;10.52;5.32;;;;;;;4.54;61.47;99478.00;5223272;28;20071;-73
2023/01/30 10:06:26;;;;;;;11.82;5.28;;;;;;;4.83;60.55;99476.19;5211102;28;20049;-72
2023/01/30 10:09:40;;;;;;;11.73;5.30;;;;;;;4.69;60.43;99466.53;5205885;28;20041;-72
2023/01/30 10:13:05;;;;;;;12.27;5.82;;;;;;;4.72;60.57;99456.69;5219644;28;20107;-73
2023/01/30 10:16:06;;;;;;;11.80;6.10;;;;;;;4.50;60.97;99452.84;5205698;28;20180;-73
2023/01/30 10:19:38;;;;;;;12.88;6.00;;;;;;;4.56;60.89;99461.19;5227829;28;20362;-72
2023/01/30 10:22:48;;;;;;;12.20;6.13;;;;;;;4.51;61.18;99465.06;5210339;28;20095;-70
2023/01/30 10:25:46;;;;;;;12.30;5.75;;;;;;;4.52;61.30;99457.09;5217343;28;20071;-73
2023/01/30 10:28:51;;;;;;;15.30;5.80;;;;;;;4.92;60.75;99446.72;5207177;28;20053;-73
2023/01/30 10:32:11;;;;;;;9.88;5.47;;;;;;;4.76;60.31;99443.38;5196051;28;20080;-70
2023/01/30 10:35:08;;;;;;;11.90;5.78;;;;;;;5.13;59.86;99457.63;5209772;28;20526;-72
2023/01/30 10:38:06;;;;;;;10.68;5.63;;;;;;;5.07;59.94;99452.81;5198179;28;20179;-72
2023/01/30 10:41:03;;;;;;;12.60;6.03;;;;;;;5.09;59.80;99445.66;5187819;28;20059;-70
2023/01/30 10:44:12;;;;;;;9.15;5.50;;;;;;;5.43;59.88;99431.19;5206963;28;20077;-71
2023/01/30 10:47:23;;;;;;;9.30;5.20;;;;;;;5.12;61.12;99430.50;5204891;28;20140;-71
2023/01/30 10:50:21;;;;;;;12.32;5.10;;;;;;;5.41;60.68;99422.53;5211323;28;20060;-70
2023/01/30 10:53:27;;;;;;;10.70;5.90;;;;;;;5.51;60.10;99430.66;5210760;28;20438;-70
2023/01/30 10:56:33;;;;;;;11.60;4.78;;;;;;;5.03;61.94;99417.13;5207052;28;20438;-71
2023/01/30 10:59:49;;;;;;;11.52;3.10;;;;;;;4.78;63.98;99441.50;5188610;28;20191;-74
2023/01/30 11:02:54;;;;;;;4.85;2.20;;;;;;;5.16;64.13;99445.16;5188521;28;20088;-70
2023/01/30 11:05:50;;;;;;;2.90;1.10;;;;;;;4.34;67.39;99452.94;5205467;28;20045;-73
2023/01/30 11:08:41;;;;;;;2.13;1.05;;;;;;;4.46;67.53;99457.47;5204481;28;20061;-72
2023/01/30 11:11:49;;;;;;;2.38;0.70;;;;;;;4.27;68.80;99449.84;5204952;28;20052;-71
2023/01/30 11:14:57;;;;;;;1.23;0.90;;;;;;;4.02;69.32;99441.78;5201979;28;20399;-75
2023/01/30 11:17:47;;;;;;;1.38;1.10;;;;;;;4.18;69.45;99437.31;5198720;28;20140;-72
2023/01/30 11:20:40;;;;;;;2.50;1.27;;;;;;;4.67;67.01;99424.63;5204643;28;20061;-73
2023/01/30 11:23:37;;;;;;;2.57;1.40;;;;;;;4.54;67.94;99428.13;5199820;28;20615;-71
2023/01/30 11:26:32;;;;;;;3.20;1.67;;;;;;;4.20;69.07;99411.78;5201531;28;20165;-73
2023/01/30 11:29:39;;;;;;;2.85;1.45;;;;;;;4.41;68.68;99430.66;5202152;28;20175;-72
2023/01/30 11:32:29;;;;;;;1.70;1.10;;;;;;;4.54;68.25;99434.22;5202993;28;20136;-73
2023/01/30 11:35:26;;;;;;;2.08;1.30;;;;;;;4.94;67.24;99450.09;5193585;28;20053;-70
2023/01/30 11:38:39;;;;;;;2.30;1.20;;;;;;;5.31;66.04;99439.84;5204081;28;20099;-72
2023/01/30 11:41:30;;;;;;;1.67;1.17;;;;;;;4.94;66.82;99447.47;5206343;28;20122;-72
2023/01/30 11:44:34;;;;;;;2.00;1.02;;;;;;;4.99;66.97;99455.91;5204703;28;20044;-70
2023/01/30 11:47:26;;;;;;;2.60;1.33;;;;;;;5.00;66.83;99447.09;5213084;28;20063;-69
2023/01/30 11:50:19;;;;;;;3.35;1.40;;;;;;;4.99;66.51;99455.91;5207229;28;20509;-68
2023/01/30 11:53:27;;;;;;;2.05;1.20;;;;;;;5.23;65.63;99450.88;5212898;28;20053;-72
2023/01/30 11:56:24;;;;;;;4.13;1.10;;;;;;;4.60;67.87;99449.59;5213781;28;20528;-70
2023/01/30 11:59:31;;;;;;;2.25;1.13;;;;;;;4.52;68.48;99440.50;5202906;28;20820;-74
2023/01/30 12:02:28;;;;;;;1.73;1.23;;;;;;;5.39;65.62;99443.66;5213935;28;20063;-70
2023/01/30 12:05:33;;;;;;;2.20;1.40;;;;;;;4.88;66.71;99425.06;5215761;28;20538;-71
2023/01/30 12:08:31;;;;;;;3.28;1.42;;;;;;;4.78;68.46;99428.38;5207503;28;20067;-74
2023/01/30 12:11:43;;;;;;;3.92;1.50;;;;;;;4.82;69.11;99430.69;5198089;28;20507;-74
2023/01/30 12:14:42;;;;;;;4.20;1.55;;;;;;;3.75;72.77;99406.59;5205479;28;20049;-74
2023/01/30 12:17:57;;;;;;;2.05;1.50;;;;;;;4.23;72.91;99420.31;5197872;28;20493;-72
2023/01/30 12:20:56;;;;;;;2.70;1.13;;;;;;;4.90;70.13;99430.19;5206242;28;20052;-72
2023/01/30 12:24:14;;;;;;;4.78;1.45;;;;;;;4.16;73.01;99431.28;5213624;28;20191;-73
2023/01/30 12:27:27;;;;;;;1.58;1.23;;;;;;;4.26;72.47;99445.53;5212958;28;20096;-72
2023/01/30 12:30:24;;;;;;;2.65;1.55;;;;;;;4.25;72.50;99433.38;5188049;28;20064;-72
2023/01/30 12:33:15;;;;;;;4.47;1.50;;;;;;;4.22;72.84;99433.56;5209379;28;20057;-74
2023/01/30 12:36:29;;;;;;;3.42;1.60;;;;;;;4.37;71.22;99437.00;5215377;28;20056;-72
2023/01/30 12:39:37;;;;;;;4.35;1.83;;;;;;;4.19;72.73;99442.44;5203194;28;20052;-72
2023/01/30 12:43:05;;;;;;;2.63;1.55;;;;;;;4.87;69.81;99448.81;5210195;28;20060;-72
2023/01/30 12:46:16;;;;;;;3.78;1.45;;;;;;;3.97;72.24;99460.41;5212219;28;20513;-70
2023/01/30 12:49:19;;;;;;;3.05;1.80;;;;;;;4.02;72.34;99462.78;5199374;28;20079;-71
2023/01/30 12:52:46;;;;;;;2.85;1.52;;;;;;;3.95;72.59;99454.41;5199188;28;20049;-70
2023/01/30 12:55:39;;;;;;;1.98;1.48;;;;;;;4.18;71.81;99459.13;5181820;28;20099;-70
2023/01/30 12:58:55;;;;;;;2.50;1.67;;;;;;;4.32;71.59;99452.22;5201306;28;20214;-71
2023/01/30 13:02:05;;;;;;;2.65;1.40;;;;;;;4.28;71.52;99442.84;5173548;28;20411;-71
2023/01/30 13:05:27;;;;;;;3.38;1.88;;;;;;;4.56;70.75;99439.34;5206303;28;20045;-72
2023/01/30 13:08:32;;;;;;;7.35;1.70;;;;;;;4.47;70.32;99436.38;5166716;28;20052;-71
2023/01/30 13:11:34;;;;;;;2.47;1.30;;;;;;;4.26;70.24;99442.06;5197906;28;20048;-70
2023/01/30 13:14:28;;;;;;;5.78;1.73;;;;;;;4.78;68.61;99438.88;5187162;28;20081;-70
2023/01/30 13:17:48;;;;;;;3.70;1.55;;;;;;;4.04;71.25;99417.16;5210573;28;20057;-70
2023/01/30 13:20:41;;;;;;;1.98;1.48;;;;;;;4.14;70.85;99441.03;5193658;28;20056;-73
2023/01/30 13:23:43;;;;;;;3.67;1.80;;;;;;;4.15;70.57;99440.94;5190867;28;20056;-70
2023/01/30 13:26:36;;;;;;;2.83;1.83;;;;;;;4.73;69.94;99447.03;5203956;28;20610;-70
2023/01/30 13:29:34;;;;;;;3.70;1.88;;;;;;;4.95;67.60;99447.38;5200763;28;20060;-70
2023/01/30 13:32:32;;;;;;;2.35;1.80;;;;;;;5.07;66.98;99466.78;5203832;28;20077;-70
2023/01/30 13:35:43;;;;;;;3.13;1.80;;;;;;;4.31;70.16;99467.13;5188388;28;20434;-73
2023/01/30 13:38:37;;;;;;;3.28;2.17;;;;;;;4.05;70.31;99476.56;5205550;28;20111;-72
2023/01/30 13:41:32;;;;;;;3.70;1.90;;;;;;;4.68;69.26;99499.84;5191087;28;20068;-73
2023/01/30 13:44:31;;;;;;;4.63;2.42;;;;;;;3.94;69.91;99471.06;5207514;28;20124;-71
2023/01/30 13:47:40;;;;;;;4.18;2.40;;;;;;;4.34;69.04;99477.44;5209638;28;20434;-72
2023/01/30 13:50:46;;;;;;;4.20;2.58;;;;;;;4.41;68.95;99483.16;5211649;28;20162;-70
2023/01/30 13:53:38;;;;;;;4.55;2.75;;;;;;;3.86;70.33;99468.91;5212857;28;20585;-70
2023/01/30 13:56:37;;;;;;;7.55;4.00;;;;;;;4.01;70.72;99443.56;5210606;28;20048;-71